University Park, New Mexico
Current Conditions -  °F | °C
As of 7:35 AM on Thursday 30 Oct 2014 (Local Time) from KLRU Reporting Station
Clear Clear  
Wind Chill: 53°   Ceiling: Unl
Heat Index: 53°   Visibility: 10mi
Dew Point: 37°   Wind: 8mph
Humidity: 56%   Direction: 340°NNW
Pressure: 30.23"   Gusts: NA
Location:  32.2825°N, 106.737°W
Report Text: KLRU 301335Z AUTO 34007KT 10SM CLR 12/03 A3023 RMK AO2 T01150030 PWINO
Loading
Personal Weather Stations






























Interactive Weather Map
Tropical Storm Tracking
New forecast layout! Learn more

10-Day Weather Forecast

Advertisements
Track Severe Weather on mobile